createdAt,value
2022-09-23T00:01:15.489Z,10.50
2022-09-23T00:03:49.143Z,12.40
2022-09-23T00:06:23.464Z,11.40
2022-09-23T00:08:55.336Z,11.80
2022-09-23T00:11:29.116Z,13.30
2022-09-23T00:14:02.225Z,13.30
2022-09-23T00:16:36.039Z,11.50
2022-09-23T00:19:07.993Z,13.10
2022-09-23T00:21:39.969Z,10.90
2022-09-23T00:24:11.878Z,12.20
2022-09-23T00:26:44.084Z,11.00
2022-09-23T00:29:16.885Z,12.50
2022-09-23T00:31:49.293Z,13.40
2022-09-23T00:34:21.373Z,14.10
2022-09-23T00:36:53.541Z,14.70
2022-09-23T00:39:26.442Z,14.20
2022-09-23T00:41:58.364Z,11.80
2022-09-23T00:44:50.270Z,10.20
2022-09-23T00:47:26.529Z,11.70
2022-09-23T00:50:11.093Z,13.00
2022-09-23T00:52:42.952Z,11.20
2022-09-23T00:55:20.006Z,12.60
2022-09-23T00:57:54.736Z,12.70
2022-09-23T01:00:27.119Z,11.60
2022-09-23T01:03:00.231Z,13.30
2022-09-23T01:05:33.113Z,13.50
2022-09-23T01:08:07.890Z,13.80
2022-09-23T01:10:52.494Z,14.50
2022-09-23T01:13:32.171Z,11.50
2022-09-23T01:16:12.739Z,11.50
2022-09-23T01:18:49.147Z,16.40
2022-09-23T01:21:36.564Z,12.30
2022-09-23T01:24:25.201Z,13.60
2022-09-23T01:27:06.853Z,14.50
2022-09-23T01:30:33.103Z,13.90
2022-09-23T01:33:14.349Z,12.10
2022-09-23T01:35:58.887Z,14.20
2022-09-23T01:38:40.606Z,12.70
2022-09-23T01:41:26.145Z,11.10
2022-09-23T01:44:04.952Z,11.10
2022-09-23T01:46:42.769Z,10.50
2022-09-23T01:49:19.937Z,21.40
2022-09-23T01:51:57.622Z,14.50
2022-09-23T01:54:38.612Z,9.60
2022-09-23T01:57:16.203Z,9.70
2022-09-23T01:59:53.634Z,11.80
2022-09-23T02:02:32.943Z,9.10
2022-09-23T02:05:14.500Z,12.80
2022-09-23T02:07:53.249Z,8.60
2022-09-23T02:10:29.799Z,9.20
2022-09-23T02:13:07.396Z,9.40
2022-09-23T02:15:42.986Z,9.10
2022-09-23T02:18:19.073Z,10.00
2022-09-23T02:20:56.635Z,9.60
2022-09-23T02:23:33.987Z,9.00
2022-09-23T02:26:15.057Z,9.40
2022-09-23T02:28:53.949Z,9.60
2022-09-23T02:31:33.648Z,9.50
2022-09-23T02:34:22.036Z,15.40
2022-09-23T02:37:04.666Z,9.90
2022-09-23T02:39:49.213Z,11.20
2022-09-23T02:42:26.749Z,9.80
2022-09-23T02:44:59.028Z,10.90
2022-09-23T02:47:35.351Z,13.20
2022-09-23T02:50:09.501Z,10.40
2022-09-23T02:52:41.357Z,13.90
2022-09-23T02:55:17.702Z,14.60
2022-09-23T02:57:49.587Z,13.50
2022-09-23T03:00:21.813Z,34.10
2022-09-23T03:03:10.615Z,13.30
2022-09-23T03:05:50.632Z,16.40
2022-09-23T03:08:36.854Z,20.60
2022-09-23T03:11:11.717Z,18.70
2022-09-23T03:13:56.871Z,23.20
2022-09-23T03:16:37.915Z,17.20
2022-09-23T03:19:21.735Z,11.40
2022-09-23T03:22:01.141Z,15.40
2022-09-23T03:24:34.979Z,37.90
2022-09-23T03:27:13.669Z,35.40
2022-09-23T03:29:47.557Z,19.90
2022-09-23T03:32:22.127Z,16.60
2022-09-23T03:34:56.201Z,14.50
2022-09-23T03:37:34.315Z,29.40
2022-09-23T03:40:14.250Z,10.90
2022-09-23T03:42:49.063Z,23.10
2022-09-23T03:45:23.930Z,10.30
2022-09-23T03:47:55.945Z,16.50
2022-09-23T03:50:28.224Z,22.00
2022-09-23T03:53:00.514Z,12.30
2022-09-23T03:55:32.619Z,19.00
2022-09-23T03:58:04.991Z,16.80
2022-09-23T04:00:37.340Z,21.30
2022-09-23T04:03:11.759Z,34.10
2022-09-23T04:05:46.006Z,32.70
2022-09-23T04:08:18.475Z,11.00
2022-09-23T04:10:54.623Z,14.30
2022-09-23T04:13:26.755Z,15.90
2022-09-23T04:15:58.652Z,23.20
2022-09-23T04:18:31.391Z,14.40
2022-09-23T04:21:03.668Z,18.30
2022-09-23T04:23:36.274Z,22.20
2022-09-23T04:26:08.557Z,16.30
2022-09-23T04:28:40.778Z,10.60
2022-09-23T04:31:13.070Z,20.90
2022-09-23T04:33:44.986Z,13.50
2022-09-23T04:36:16.871Z,16.60
2022-09-23T04:38:50.279Z,29.80
2022-09-23T04:41:22.474Z,12.60
2022-09-23T04:43:54.990Z,12.70
2022-09-23T04:46:27.212Z,29.60
2022-09-23T04:48:59.814Z,34.10
2022-09-23T04:51:31.754Z,15.20
2022-09-23T04:54:04.638Z,23.90
2022-09-23T04:56:37.458Z,29.00
2022-09-23T04:59:09.714Z,16.90
2022-09-23T05:01:42.247Z,16.70
2022-09-23T05:04:15.002Z,17.80
2022-09-23T05:06:47.110Z,37.70
2022-09-23T05:09:19.882Z,22.70
2022-09-23T05:11:52.051Z,23.20
2022-09-23T05:14:23.945Z,24.80
2022-09-23T05:16:56.284Z,28.40
2022-09-23T05:19:28.751Z,26.10
2022-09-23T05:22:00.562Z,27.00
2022-09-23T05:24:32.728Z,36.50
2022-09-23T05:27:07.257Z,41.60
2022-09-23T05:29:39.808Z,33.80
2022-09-23T05:32:11.576Z,43.80
2022-09-23T05:34:43.478Z,26.20
2022-09-23T05:37:15.446Z,58.90
2022-09-23T05:39:47.303Z,22.20
2022-09-23T05:42:20.693Z,20.40
2022-09-23T05:44:52.719Z,34.20
2022-09-23T05:47:24.662Z,18.70
2022-09-23T05:49:59.902Z,18.70
2022-09-23T05:52:34.986Z,15.80
2022-09-23T05:55:08.605Z,17.30
2022-09-23T05:57:40.450Z,18.90
2022-09-23T06:00:14.547Z,20.40
2022-09-23T06:02:48.087Z,20.20
2022-09-23T06:05:20.704Z,17.30
2022-09-23T06:07:52.748Z,21.30
2022-09-23T06:10:24.663Z,19.50
2022-09-23T06:12:56.530Z,19.30
2022-09-23T06:15:28.737Z,18.30
2022-09-23T06:18:00.668Z,16.80
2022-09-23T06:20:32.946Z,22.70
2022-09-23T06:23:10.352Z,19.60
2022-09-23T06:25:43.446Z,19.80
2022-09-23T06:28:15.796Z,22.20
2022-09-23T06:30:54.311Z,19.60
2022-09-23T06:33:36.076Z,19.80
2022-09-23T06:36:10.396Z,21.20
2022-09-23T06:38:44.887Z,18.40
2022-09-23T06:41:17.930Z,17.90
2022-09-23T06:43:49.902Z,18.90
2022-09-23T06:46:21.991Z,18.10
2022-09-23T06:48:53.986Z,18.50
2022-09-23T06:51:25.867Z,19.00
2022-09-23T06:53:57.821Z,23.90
2022-09-23T06:56:32.414Z,21.00
2022-09-23T06:59:06.684Z,22.90
2022-09-23T07:01:38.722Z,17.00
2022-09-23T07:04:11.251Z,20.40
2022-09-23T07:06:43.556Z,15.90
2022-09-23T07:09:15.375Z,21.70
2022-09-23T07:11:49.782Z,19.20
2022-09-23T07:14:22.586Z,21.80
2022-09-23T07:16:54.864Z,18.70
2022-09-23T07:19:26.753Z,20.10
2022-09-23T07:21:58.645Z,16.10
2022-09-23T07:24:31.156Z,15.00
2022-09-23T07:27:03.212Z,15.80
2022-09-23T07:29:44.898Z,16.00
2022-09-23T07:32:22.144Z,15.80
2022-09-23T07:34:54.278Z,14.90
2022-09-23T07:37:26.125Z,14.90
2022-09-23T07:39:58.018Z,15.60
2022-09-23T07:42:29.838Z,17.80
2022-09-23T07:45:02.348Z,16.40
2022-09-23T07:47:34.815Z,16.80
2022-09-23T07:50:08.046Z,13.60
2022-09-23T07:52:40.573Z,10.10
2022-09-23T07:55:17.640Z,11.10
2022-09-23T07:57:52.791Z,11.60
2022-09-23T08:00:24.802Z,10.70
2022-09-23T08:02:56.742Z,11.00
2022-09-23T08:05:29.458Z,8.30
2022-09-23T08:08:01.400Z,9.70
2022-09-23T08:10:33.287Z,12.50
2022-09-23T08:13:05.144Z,9.80
2022-09-23T08:15:37.116Z,11.10
2022-09-23T08:18:09.095Z,15.60
2022-09-23T08:20:48.018Z,12.50
2022-09-23T08:23:20.658Z,12.60
2022-09-23T08:26:00.198Z,9.00
2022-09-23T08:28:33.268Z,12.10
2022-09-23T08:31:05.455Z,9.40
2022-09-23T08:33:37.558Z,10.50
2022-09-23T08:36:10.549Z,8.70
2022-09-23T08:38:43.390Z,9.60
2022-09-23T08:41:29.317Z,8.10
2022-09-23T08:44:06.018Z,9.80
2022-09-23T08:46:42.457Z,8.30
2022-09-23T08:49:20.218Z,9.20
2022-09-23T08:51:54.937Z,6.00
2022-09-23T08:54:31.919Z,6.90
2022-09-23T08:57:06.564Z,6.80
2022-09-23T08:59:43.351Z,8.10
2022-09-23T09:02:19.861Z,8.00
2022-09-23T09:04:54.958Z,8.70
2022-09-23T09:07:38.202Z,6.50
2022-09-23T09:10:20.929Z,5.50
2022-09-23T09:13:01.145Z,5.80
2022-09-23T09:15:36.969Z,5.80
2022-09-23T09:18:14.276Z,6.00
2022-09-23T09:20:57.097Z,5.20
2022-09-23T09:23:36.298Z,6.90
2022-09-23T09:26:17.702Z,4.80
2022-09-23T09:28:54.774Z,6.60
2022-09-23T09:31:33.950Z,3.80
2022-09-23T09:34:12.165Z,5.40
2022-09-23T09:36:50.358Z,4.70
2022-09-23T09:39:26.128Z,4.50
2022-09-23T09:42:00.600Z,3.30
2022-09-23T09:44:40.049Z,4.20
2022-09-23T09:47:28.915Z,5.10
2022-09-23T09:50:09.452Z,38.30
2022-09-23T09:52:43.394Z,8.10
2022-09-23T09:55:29.903Z,4.20
2022-09-23T09:58:06.037Z,23.10
2022-09-23T10:00:43.999Z,11.40
2022-09-23T10:03:40.078Z,12.30
2022-09-23T10:06:21.660Z,9.70
2022-09-23T10:09:13.843Z,18.10
2022-09-23T10:12:11.931Z,10.30
2022-09-23T10:14:44.228Z,2.30
2022-09-23T10:17:20.581Z,1.90
2022-09-23T10:20:00.987Z,2.40
2022-09-23T10:22:39.917Z,2.70
2022-09-23T10:25:21.665Z,4.60
2022-09-23T10:27:53.862Z,3.40
2022-09-23T10:30:28.327Z,3.50
2022-09-23T10:33:00.234Z,1.90
2022-09-23T10:35:34.513Z,2.20
2022-09-23T10:38:06.442Z,3.00
2022-09-23T10:40:58.570Z,2.00
2022-09-23T10:44:00.944Z,1.10
2022-09-23T10:46:41.735Z,1.00
2022-09-23T10:49:49.977Z,1.20
2022-09-23T10:52:46.607Z,2.20
2022-09-23T10:55:34.827Z,1.00
2022-09-23T10:58:26.386Z,2.10
2022-09-23T11:01:13.190Z,1.60
2022-09-23T11:04:11.992Z,0.60
2022-09-23T11:06:55.898Z,2.20
2022-09-23T11:09:40.861Z,1.40
2022-09-23T11:12:27.466Z,1.00
2022-09-23T11:15:16.739Z,1.80
2022-09-23T11:18:22.289Z,4.00
2022-09-23T11:21:03.438Z,1.70
2022-09-23T11:23:52.559Z,1.40
2022-09-23T11:26:37.930Z,5.90
2022-09-23T11:29:31.702Z,2.40
2022-09-23T11:32:27.737Z,1.30
2022-09-23T11:35:12.704Z,26.60
2022-09-23T11:37:48.121Z,2.00
2022-09-23T11:40:27.922Z,3.00
2022-09-23T11:43:04.411Z,1.50
2022-09-23T11:45:43.366Z,1.50
2022-09-23T11:48:21.646Z,1.30
2022-09-23T11:51:01.351Z,1.70
2022-09-23T11:53:45.103Z,0.90
2022-09-23T11:56:33.348Z,0.60
2022-09-23T11:59:37.278Z,1.50
2022-09-23T12:02:24.667Z,3.10
2022-09-23T12:05:07.569Z,3.80
2022-09-23T12:07:51.896Z,2.00
2022-09-23T12:10:28.846Z,2.50
2022-09-23T12:13:07.457Z,2.60
2022-09-23T12:15:53.640Z,3.10
2022-09-23T12:18:42.319Z,2.20
2022-09-23T12:21:50.400Z,0.90
2022-09-23T12:24:46.670Z,1.80
2022-09-23T12:27:30.453Z,1.00
2022-09-23T12:30:11.953Z,1.10
2022-09-23T12:32:47.544Z,1.40
2022-09-23T12:35:26.633Z,3.00
2022-09-23T12:38:00.974Z,3.30
2022-09-23T12:40:35.893Z,1.80
2022-09-23T12:43:16.282Z,4.90
2022-09-23T12:45:48.609Z,1.30
2022-09-23T12:48:46.852Z,1.30
2022-09-23T12:51:23.277Z,1.50
2022-09-23T12:53:58.011Z,4.40
2022-09-23T12:56:45.209Z,1.00
2022-09-23T12:59:31.719Z,1.00
2022-09-23T13:02:27.463Z,4.10
2022-09-23T13:05:28.852Z,2.30
2022-09-23T13:08:04.219Z,0.60
2022-09-23T13:10:44.152Z,1.10
2022-09-23T13:13:25.378Z,2.10
2022-09-23T13:16:12.067Z,2.10
2022-09-23T13:19:01.673Z,3.70
2022-09-23T13:22:03.792Z,6.10
2022-09-23T13:24:53.800Z,4.00
2022-09-23T13:27:32.305Z,7.60
2022-09-23T13:30:21.227Z,2.10
2022-09-23T13:33:06.357Z,3.40
2022-09-23T13:35:42.059Z,2.50
2022-09-23T13:38:20.020Z,4.30
2022-09-23T13:40:52.231Z,3.40
2022-09-23T13:43:31.902Z,3.50
2022-09-23T13:46:09.624Z,2.40
2022-09-23T13:48:44.313Z,3.60
2022-09-23T13:51:23.637Z,3.60
2022-09-23T13:53:59.660Z,3.70
2022-09-23T13:56:33.543Z,1.80
2022-09-23T13:59:24.043Z,2.10
2022-09-23T14:02:08.319Z,4.80
2022-09-23T14:04:40.405Z,7.20
2022-09-23T14:07:15.768Z,1.90
2022-09-23T14:09:49.943Z,4.50
2022-09-23T14:12:23.086Z,3.60
2022-09-23T14:14:55.350Z,1.80
2022-09-23T14:17:27.294Z,1.40
2022-09-23T14:19:59.321Z,1.80
2022-09-23T14:22:32.525Z,1.30
2022-09-23T14:25:04.831Z,2.80
2022-09-23T14:27:37.624Z,1.70
2022-09-23T14:30:19.184Z,2.20
2022-09-23T14:32:52.201Z,1.80
2022-09-23T14:35:27.130Z,0.80
2022-09-23T14:38:18.034Z,3.00
2022-09-23T14:41:12.046Z,1.10
2022-09-23T14:43:50.693Z,1.50
2022-09-23T14:46:24.580Z,1.80
2022-09-23T14:49:05.988Z,2.40
2022-09-23T14:51:49.355Z,2.50
2022-09-23T14:54:36.503Z,3.40
2022-09-23T14:57:29.794Z,3.10
2022-09-23T15:00:10.295Z,4.60
2022-09-23T15:02:46.366Z,2.20
2022-09-23T15:05:21.656Z,2.50
2022-09-23T15:07:56.722Z,2.20
2022-09-23T15:10:32.760Z,1.40
2022-09-23T15:13:09.724Z,1.60
2022-09-23T15:15:42.393Z,1.70
2022-09-23T15:18:19.691Z,1.80
2022-09-23T15:20:54.933Z,2.50
2022-09-23T15:23:44.887Z,2.10
2022-09-23T15:26:20.031Z,3.50
2022-09-23T15:28:54.234Z,1.80
2022-09-23T15:31:26.827Z,1.50
2022-09-23T15:33:59.026Z,1.70
2022-09-23T15:36:31.242Z,2.60
2022-09-23T15:39:08.734Z,3.50
2022-09-23T15:41:43.360Z,2.70
2022-09-23T15:44:29.584Z,2.50
2022-09-23T15:47:02.018Z,2.30
2022-09-23T15:49:36.767Z,3.00
2022-09-23T15:52:12.370Z,4.90
2022-09-23T15:54:44.945Z,3.30
2022-09-23T15:57:17.096Z,4.50
2022-09-23T15:59:49.362Z,2.80
2022-09-23T16:02:25.246Z,4.80
2022-09-23T16:04:57.476Z,3.70
2022-09-23T16:07:29.794Z,3.10
2022-09-23T16:10:03.503Z,5.00
2022-09-23T16:12:35.613Z,3.10
2022-09-23T16:15:14.672Z,2.50
2022-09-23T16:17:47.295Z,2.60
2022-09-23T16:20:19.593Z,5.30
2022-09-23T16:22:57.202Z,4.80
2022-09-23T16:25:32.095Z,15.00
2022-09-23T16:28:04.999Z,12.50
2022-09-23T16:30:37.593Z,26.90
2022-09-23T16:33:09.466Z,15.50
2022-09-23T16:35:41.276Z,11.00
2022-09-23T16:38:13.910Z,16.40
2022-09-23T16:40:47.302Z,13.40
2022-09-23T16:43:19.757Z,6.30
2022-09-23T16:45:51.666Z,7.90
2022-09-23T16:48:24.909Z,9.50
2022-09-23T16:50:56.792Z,5.80
2022-09-23T16:53:31.151Z,6.10
2022-09-23T16:56:09.484Z,7.30
2022-09-23T16:58:42.297Z,67.20
2022-09-23T17:01:37.886Z,86.70
2022-09-23T17:04:10.666Z,72.50
2022-09-23T17:06:50.301Z,60.20
2022-09-23T17:09:24.849Z,45.80
2022-09-23T17:12:05.892Z,44.50
2022-09-23T17:14:37.797Z,42.80
2022-09-23T17:17:10.456Z,33.30
2022-09-23T17:19:42.412Z,21.10
2022-09-23T17:22:14.461Z,20.50
2022-09-23T17:24:46.764Z,16.40
2022-09-23T17:27:18.983Z,15.70
2022-09-23T17:29:50.875Z,16.60
2022-09-23T17:32:22.937Z,10.70
2022-09-23T17:34:54.919Z,17.00
2022-09-23T17:37:26.740Z,15.20
2022-09-23T17:39:58.635Z,14.00
2022-09-23T17:42:30.737Z,13.10
2022-09-23T17:45:02.660Z,11.40
2022-09-23T17:47:39.452Z,10.70
2022-09-23T17:50:15.270Z,16.50
2022-09-23T17:52:47.179Z,13.90
2022-09-23T17:55:20.073Z,13.30
2022-09-23T17:57:54.278Z,11.20
2022-09-23T18:00:27.457Z,14.80
2022-09-23T18:02:59.816Z,12.30
2022-09-23T18:05:31.981Z,14.90
2022-09-23T18:08:06.118Z,11.30
2022-09-23T18:10:38.176Z,9.30
2022-09-23T18:13:10.739Z,12.90
2022-09-23T18:15:43.311Z,11.50
2022-09-23T18:18:15.580Z,16.30
2022-09-23T18:20:47.567Z,13.40
2022-09-23T18:23:24.024Z,15.30
2022-09-23T18:25:58.210Z,15.90
2022-09-23T18:28:34.928Z,17.90
2022-09-23T18:31:07.444Z,14.30
2022-09-23T18:33:39.722Z,14.30
2022-09-23T18:36:12.680Z,16.30
2022-09-23T18:38:44.799Z,17.00
2022-09-23T18:41:17.808Z,16.70
2022-09-23T18:43:50.435Z,18.30
2022-09-23T18:46:24.493Z,16.60
2022-09-23T18:49:14.659Z,17.50
2022-09-23T18:51:53.932Z,16.60
2022-09-23T18:54:29.745Z,14.70
2022-09-23T18:57:01.793Z,17.50
2022-09-23T18:59:34.188Z,16.10
2022-09-23T19:02:07.796Z,19.60
2022-09-23T19:04:40.355Z,18.90
2022-09-23T19:07:12.500Z,19.30
2022-09-23T19:09:44.883Z,18.10
2022-09-23T19:12:17.064Z,20.70
2022-09-23T19:14:49.211Z,21.20
2022-09-23T19:17:21.463Z,21.90
2022-09-23T19:19:53.501Z,19.50
2022-09-23T19:22:25.726Z,20.40
2022-09-23T19:24:57.780Z,21.20
2022-09-23T19:27:29.801Z,23.50
2022-09-23T19:30:01.843Z,22.70
2022-09-23T19:32:34.923Z,20.60
2022-09-23T19:35:07.811Z,22.00
2022-09-23T19:37:40.813Z,22.30
2022-09-23T19:40:13.621Z,24.30
2022-09-23T19:42:45.690Z,20.30
2022-09-23T19:45:18.517Z,26.10
2022-09-23T19:47:54.395Z,22.20
2022-09-23T19:50:26.734Z,23.10
2022-09-23T19:52:59.895Z,22.20
2022-09-23T19:55:33.305Z,21.70
2022-09-23T19:58:06.006Z,25.50
2022-09-23T20:00:38.118Z,24.50
2022-09-23T20:03:11.408Z,23.30
2022-09-23T20:05:43.342Z,22.00
2022-09-23T20:08:15.172Z,24.20
2022-09-23T20:10:48.304Z,21.20
2022-09-23T20:13:20.343Z,23.30
2022-09-23T20:15:52.275Z,17.90
2022-09-23T20:18:24.213Z,22.20
2022-09-23T20:20:57.699Z,23.70
2022-09-23T20:23:30.810Z,22.50
2022-09-23T20:26:21.934Z,20.00
2022-09-23T20:28:54.377Z,20.30
2022-09-23T20:31:27.250Z,21.90
2022-09-23T20:34:00.085Z,22.20
2022-09-23T20:36:32.913Z,24.90
2022-09-23T20:39:06.880Z,24.30
2022-09-23T20:41:41.032Z,24.70
2022-09-23T20:44:14.131Z,24.20
2022-09-23T20:46:48.956Z,29.50
2022-09-23T20:49:22.797Z,26.80
2022-09-23T20:51:54.719Z,24.90
2022-09-23T20:54:26.712Z,23.70
2022-09-23T20:56:58.862Z,23.90
2022-09-23T20:59:30.982Z,24.70
2022-09-23T21:02:03.301Z,28.50
2022-09-23T21:04:36.168Z,26.20
2022-09-23T21:07:08.328Z,28.00
2022-09-23T21:09:40.682Z,31.10
2022-09-23T21:12:12.559Z,26.20
2022-09-23T21:14:44.557Z,29.70
2022-09-23T21:17:16.452Z,28.00
2022-09-23T21:19:48.234Z,28.90
2022-09-23T21:22:20.103Z,24.50
2022-09-23T21:25:26.185Z,28.70
2022-09-23T21:27:44.886Z,26.00
2022-09-23T21:30:17.927Z,24.40
2022-09-23T21:32:49.854Z,25.10
2022-09-23T21:35:22.110Z,24.70
2022-09-23T21:37:53.985Z,25.00
2022-09-23T21:40:43.791Z,25.90
2022-09-23T21:43:16.842Z,25.20
2022-09-23T21:45:49.551Z,24.50
2022-09-23T21:48:21.743Z,21.40
2022-09-23T21:50:59.347Z,24.20
2022-09-23T21:53:33.000Z,23.60
2022-09-23T21:56:07.681Z,28.20
2022-09-23T21:58:41.316Z,24.90
2022-09-23T22:01:15.752Z,27.10
2022-09-23T22:03:52.936Z,24.20
2022-09-23T22:06:27.303Z,23.30
2022-09-23T22:09:04.130Z,22.90
2022-09-23T22:11:54.370Z,26.80
2022-09-23T22:14:27.337Z,21.50
2022-09-23T22:17:02.358Z,23.40
2022-09-23T22:19:40.299Z,20.60
2022-09-23T22:22:15.585Z,22.80
2022-09-23T22:24:49.221Z,24.40
2022-09-23T22:27:21.843Z,23.70
2022-09-23T22:30:11.575Z,20.90
2022-09-23T22:32:43.758Z,22.10
2022-09-23T22:35:17.973Z,21.50
2022-09-23T22:37:52.238Z,19.80
2022-09-23T22:40:24.462Z,22.70
2022-09-23T22:42:57.079Z,20.70
2022-09-23T22:45:29.018Z,21.60
2022-09-23T22:48:01.105Z,21.60
2022-09-23T22:50:33.069Z,23.90
2022-09-23T22:53:05.069Z,21.20
2022-09-23T22:55:37.284Z,22.80
2022-09-23T22:58:30.706Z,24.20
2022-09-23T23:01:02.587Z,22.40
2022-09-23T23:03:35.365Z,22.30
2022-09-23T23:06:08.810Z,21.70
2022-09-23T23:08:40.758Z,23.90
2022-09-23T23:11:12.823Z,22.00
2022-09-23T23:13:45.218Z,21.90
2022-09-23T23:16:17.419Z,21.00
2022-09-23T23:18:49.356Z,20.10
2022-09-23T23:21:22.339Z,18.50
2022-09-23T23:23:54.707Z,20.30
2022-09-23T23:26:28.601Z,22.50
2022-09-23T23:29:01.575Z,18.40
2022-09-23T23:31:33.720Z,25.20
2022-09-23T23:34:05.937Z,20.10
2022-09-23T23:36:38.336Z,21.00
2022-09-23T23:39:11.366Z,22.20
2022-09-23T23:41:43.388Z,20.00
2022-09-23T23:44:15.604Z,21.70
2022-09-23T23:46:48.298Z,20.70
2022-09-23T23:49:20.460Z,23.30
2022-09-23T23:51:53.111Z,21.60
2022-09-23T23:54:24.917Z,22.10
2022-09-23T23:56:56.792Z,23.10
2022-09-23T23:59:28.932Z,23.10
